Time;durP1;ratioP1;P1;durP2;ratioP2;P2;SDS_P1;SDS_P2;PMS_P1;PMS_P2;Temp;Humidity;BMP_temperature;BMP_pressure;BME280_temperature;BME280_humidity;BME280_pressure;Samples;Min_cycle;Max_cycle;Signal;HPM_P1;HPM_P2
2024/01/21 05:31:06;;;;;;;0.10;0.10;;;4.20;92.30;;;;;;5633798;23;20058;-78
2024/01/21 05:33:32;;;;;;;0.10;0.10;;;4.20;92.40;;;;;;5010925;28;20033;-78
2024/01/21 05:35:57;;;;;;;0.10;0.10;;;4.30;92.40;;;;;;5015105;28;20042;-78
2024/01/21 05:38:23;;;;;;;0.20;0.20;;;4.30;92.50;;;;;;4999415;28;20530;-78
2024/01/21 05:40:49;;;;;;;0.10;0.10;;;4.30;92.70;;;;;;5007439;28;20022;-77
2024/01/21 05:43:14;;;;;;;0.20;0.20;;;4.30;93.00;;;;;;5019061;28;20114;-78
2024/01/21 05:45:40;;;;;;;0.10;0.10;;;4.40;93.10;;;;;;5008084;28;20057;-78
2024/01/21 05:48:07;;;;;;;0.10;0.10;;;4.50;92.90;;;;;;4998167;28;20145;-78
2024/01/21 05:50:32;;;;;;;0.10;0.10;;;4.50;92.90;;;;;;5017209;28;20121;-78
2024/01/21 05:52:58;;;;;;;0.10;0.10;;;4.50;92.80;;;;;;5018802;28;20069;-78
2024/01/21 05:55:23;;;;;;;0.13;0.13;;;4.60;93.10;;;;;;5007265;28;20120;-78
2024/01/21 05:57:49;;;;;;;0.10;0.10;;;4.60;92.90;;;;;;5017861;28;20030;-77
2024/01/21 06:00:15;;;;;;;0.10;0.10;;;4.70;93.00;;;;;;5018871;28;20025;-78
2024/01/21 06:02:42;;;;;;;0.15;0.15;;;4.70;93.00;;;;;;5008290;28;20092;-79
2024/01/21 06:05:08;;;;;;;0.10;0.10;;;4.70;92.90;;;;;;5001787;28;20028;-78
2024/01/21 06:07:33;;;;;;;0.10;0.10;;;4.70;93.00;;;;;;5006402;28;20393;-78
2024/01/21 06:09:59;;;;;;;0.10;0.10;;;4.80;92.90;;;;;;4999267;28;20105;-78
2024/01/21 06:12:24;;;;;;;0.10;0.10;;;4.80;93.10;;;;;;4999245;28;20045;-78
2024/01/21 06:14:50;;;;;;;0.17;0.17;;;4.80;93.00;;;;;;4998811;28;20025;-78
2024/01/21 06:17:16;;;;;;;0.10;0.10;;;4.80;93.10;;;;;;4998988;28;20393;-78
2024/01/21 06:19:41;;;;;;;0.15;0.15;;;4.90;93.20;;;;;;5013206;28;20478;-77
2024/01/21 06:22:07;;;;;;;0.20;0.20;;;4.90;93.10;;;;;;4998586;28;20030;-78
2024/01/21 06:24:36;;;;;;;0.10;0.10;;;4.90;93.10;;;;;;5000144;28;20426;-78
2024/01/21 06:27:03;;;;;;;0.10;0.10;;;5.00;93.10;;;;;;5017454;28;20037;-77
2024/01/21 06:29:28;;;;;;;0.10;0.10;;;5.00;93.00;;;;;;5018252;28;20033;-77
2024/01/21 06:31:55;;;;;;;0.10;0.10;;;5.10;93.10;;;;;;5012768;28;20046;-78
2024/01/21 06:34:20;;;;;;;0.15;0.15;;;5.00;93.20;;;;;;5002483;28;20133;-78
2024/01/21 06:36:46;;;;;;;0.10;0.10;;;5.10;93.10;;;;;;5015957;28;20057;-78
2024/01/21 06:39:12;;;;;;;0.20;0.20;;;5.10;93.10;;;;;;5001102;28;20072;-78
2024/01/21 06:41:38;;;;;;;0.10;0.10;;;5.20;93.20;;;;;;5016857;28;20034;-78
2024/01/21 06:44:03;;;;;;;0.10;0.10;;;5.20;93.20;;;;;;5012730;28;20493;-77
2024/01/21 06:46:29;;;;;;;0.10;0.10;;;5.30;93.10;;;;;;4998423;28;20104;-78
2024/01/21 06:48:55;;;;;;;0.10;0.10;;;5.30;93.20;;;;;;5014271;28;20026;-78
2024/01/21 06:51:42;;;;;;;0.10;0.10;;;5.30;93.10;;;;;;5017818;28;20137;-78
2024/01/21 06:54:08;;;;;;;0.10;0.10;;;5.30;93.30;;;;;;5017637;28;20026;-77
2024/01/21 06:56:34;;;;;;;0.10;0.10;;;5.40;93.20;;;;;;5012579;28;20080;-78
2024/01/21 06:58:59;;;;;;;0.10;0.10;;;5.40;93.20;;;;;;4998239;28;20466;-78
2024/01/21 07:01:25;;;;;;;0.10;0.10;;;5.40;93.20;;;;;;4997853;28;20099;-78
2024/01/21 07:03:51;;;;;;;0.10;0.10;;;5.50;93.20;;;;;;5010461;28;20022;-78
2024/01/21 07:06:16;;;;;;;0.10;0.10;;;5.50;93.20;;;;;;5005941;28;20157;-78
2024/01/21 07:08:42;;;;;;;0.10;0.10;;;5.50;93.30;;;;;;4996527;28;20054;-78
2024/01/21 07:11:08;;;;;;;0.10;0.10;;;5.50;93.50;;;;;;4997817;28;20034;-78
2024/01/21 07:13:34;;;;;;;0.10;0.10;;;5.60;93.40;;;;;;4997833;28;20184;-77
2024/01/21 07:15:59;;;;;;;0.10;0.10;;;5.60;93.50;;;;;;4997795;28;20022;-77
2024/01/21 07:18:25;;;;;;;0.10;0.10;;;5.60;93.40;;;;;;4997727;28;20363;-77
2024/01/21 07:20:51;;;;;;;0.10;0.10;;;5.60;93.50;;;;;;4997552;28;20041;-75
2024/01/21 07:23:17;;;;;;;0.10;0.10;;;5.70;93.50;;;;;;4997517;28;20022;-77
2024/01/21 07:25:43;;;;;;;0.10;0.10;;;5.70;93.50;;;;;;5008246;28;20113;-76
2024/01/21 07:28:09;;;;;;;0.10;0.10;;;5.70;93.40;;;;;;5017139;28;20120;-75
2024/01/21 07:30:34;;;;;;;0.13;0.13;;;5.70;93.40;;;;;;4998911;28;20054;-76
2024/01/21 07:33:01;;;;;;;0.10;0.10;;;5.80;93.40;;;;;;4997554;28;20552;-77
2024/01/21 07:35:27;;;;;;;0.10;0.10;;;5.80;93.30;;;;;;5005646;28;20031;-76
2024/01/21 07:37:53;;;;;;;0.10;0.10;;;5.80;93.30;;;;;;5003116;28;20014;-76
2024/01/21 07:40:18;;;;;;;0.10;0.10;;;5.90;93.20;;;;;;5017552;28;20030;-76
2024/01/21 07:42:45;;;;;;;0.10;0.10;;;5.90;93.20;;;;;;5018392;28;20505;-76
2024/01/21 07:45:11;;;;;;;0.15;0.15;;;5.90;93.20;;;;;;5009676;28;20041;-75
2024/01/21 07:47:36;;;;;;;0.20;0.20;;;5.90;93.10;;;;;;5012957;28;20022;-76
2024/01/21 07:50:04;;;;;;;0.10;0.10;;;5.90;93.10;;;;;;5013662;28;20037;-75
2024/01/21 07:52:30;;;;;;;0.10;0.10;;;6.00;93.10;;;;;;5016142;28;20080;-76
2024/01/21 07:54:56;;;;;;;0.20;0.20;;;6.00;93.10;;;;;;4996859;28;20661;-77
2024/01/21 07:57:22;;;;;;;0.10;0.10;;;6.00;93.10;;;;;;4996891;28;20030;-77
2024/01/21 07:59:47;;;;;;;0.10;0.10;;;6.00;93.00;;;;;;4999157;28;20026;-75
2024/01/21 08:02:13;;;;;;;0.13;0.13;;;6.00;93.00;;;;;;4997362;28;20030;-75
2024/01/21 08:04:39;;;;;;;0.10;0.10;;;6.00;93.00;;;;;;5003645;28;20077;-75
2024/01/21 08:07:04;;;;;;;0.10;0.10;;;6.00;92.90;;;;;;5016748;28;20501;-75
2024/01/21 08:09:30;;;;;;;0.10;0.10;;;6.00;92.80;;;;;;5001568;28;20402;-74
2024/01/21 08:11:56;;;;;;;0.10;0.10;;;6.00;92.90;;;;;;4998580;28;20034;-72
2024/01/21 08:14:21;;;;;;;0.10;0.10;;;6.00;92.90;;;;;;5010833;28;20030;-72
2024/01/21 08:16:47;;;;;;;0.17;0.17;;;6.00;92.90;;;;;;5016107;28;20014;-73
2024/01/21 08:19:15;;;;;;;0.10;0.10;;;6.00;92.90;;;;;;5014509;28;20026;-73
2024/01/21 08:21:40;;;;;;;0.20;0.20;;;6.00;92.90;;;;;;5011068;28;20085;-73
2024/01/21 08:24:06;;;;;;;0.10;0.10;;;6.10;92.90;;;;;;5014520;28;20033;-73
2024/01/21 08:26:32;;;;;;;0.10;0.10;;;6.10;93.00;;;;;;5010292;28;20022;-73
2024/01/21 08:28:58;;;;;;;0.15;0.15;;;6.10;92.90;;;;;;5016488;28;20081;-74
2024/01/21 08:31:23;;;;;;;0.10;0.10;;;6.20;92.90;;;;;;5013284;28;20421;-75
2024/01/21 08:33:49;;;;;;;0.10;0.10;;;6.20;92.90;;;;;;5014378;28;20125;-75
2024/01/21 08:36:15;;;;;;;0.13;0.13;;;6.20;92.90;;;;;;5012913;28;20033;-75
2024/01/21 08:38:40;;;;;;;0.10;0.10;;;6.20;92.90;;;;;;5015140;28;20022;-74
2024/01/21 08:41:06;;;;;;;0.10;0.10;;;6.20;92.90;;;;;;5014650;28;20073;-76
2024/01/21 08:43:32;;;;;;;0.10;0.10;;;6.30;93.00;;;;;;5017337;28;20025;-75
2024/01/21 08:45:58;;;;;;;0.10;0.10;;;6.30;92.90;;;;;;5018733;28;20151;-75
2024/01/21 08:48:23;;;;;;;0.20;0.20;;;6.30;92.80;;;;;;5018532;28;20090;-75
2024/01/21 08:50:49;;;;;;;0.40;0.20;;;6.30;92.80;;;;;;5017853;28;20034;-75
2024/01/21 08:53:15;;;;;;;0.10;0.10;;;6.30;92.80;;;;;;5017921;28;20054;-75
2024/01/21 08:55:40;;;;;;;0.20;0.20;;;6.30;92.80;;;;;;5019792;28;20434;-75
2024/01/21 08:58:06;;;;;;;0.10;0.10;;;6.40;92.80;;;;;;5019494;28;20101;-75
2024/01/21 09:00:31;;;;;;;0.20;0.20;;;6.40;92.80;;;;;;5018764;28;20023;-76
2024/01/21 09:02:57;;;;;;;0.30;0.30;;;6.40;92.80;;;;;;5019424;28;20565;-75
2024/01/21 09:05:23;;;;;;;0.30;0.30;;;6.50;92.70;;;;;;5019342;28;20029;-77
2024/01/21 09:07:48;;;;;;;0.17;0.17;;;6.50;92.80;;;;;;5017143;28;20022;-84
2024/01/21 09:10:14;;;;;;;0.20;0.20;;;6.40;92.80;;;;;;5013319;28;20106;-76
2024/01/21 09:12:40;;;;;;;0.20;0.20;;;6.50;92.60;;;;;;5017111;28;20378;-76
2024/01/21 09:15:09;;;;;;;0.20;0.20;;;6.50;92.70;;;;;;5019608;28;20026;-85
2024/01/21 09:17:34;;;;;;;0.17;0.17;;;6.50;92.70;;;;;;5019964;28;20022;-77
2024/01/21 09:20:00;;;;;;;0.35;0.30;;;6.50;92.80;;;;;;5012070;28;20494;-80
2024/01/21 09:22:25;;;;;;;0.20;0.20;;;6.50;92.80;;;;;;5005924;28;20538;-76
2024/01/21 09:24:54;;;;;;;0.25;0.25;;;6.50;92.90;;;;;;5009780;28;20026;-78
2024/01/21 09:27:46;;;;;;;0.10;0.10;;;6.60;92.90;;;;;;5012838;28;20600;-80
2024/01/21 09:30:12;;;;;;;0.20;0.20;;;6.60;92.90;;;;;;5002774;28;20038;-76
2024/01/21 09:32:38;;;;;;;0.20;0.20;;;6.50;93.00;;;;;;5010219;28;20511;-76
2024/01/21 09:35:04;;;;;;;0.10;0.10;;;6.60;93.00;;;;;;4995214;28;20026;-75
2024/01/21 09:37:29;;;;;;;0.10;0.10;;;6.60;93.00;;;;;;4996955;28;20026;-76
2024/01/21 09:39:55;;;;;;;0.30;0.30;;;6.60;93.00;;;;;;5001152;28;20547;-75
2024/01/21 09:42:22;;;;;;;0.20;0.20;;;6.60;92.90;;;;;;5008350;28;20080;-80
2024/01/21 09:44:48;;;;;;;0.43;0.38;;;6.60;93.00;;;;;;5010124;28;20072;-76
2024/01/21 09:47:14;;;;;;;0.10;0.10;;;6.70;93.00;;;;;;5005996;28;20085;-77
2024/01/21 09:49:40;;;;;;;0.20;0.20;;;6.70;93.10;;;;;;5016114;28;20077;-77
2024/01/21 09:52:07;;;;;;;0.10;0.10;;;6.80;93.00;;;;;;4998519;28;20109;-78
2024/01/21 09:54:33;;;;;;;0.20;0.20;;;6.80;93.10;;;;;;5007646;28;20021;-78
2024/01/21 09:56:59;;;;;;;0.10;0.10;;;6.90;93.10;;;;;;5004948;28;20058;-79
2024/01/21 09:59:27;;;;;;;0.10;0.10;;;6.90;93.10;;;;;;5001386;28;20026;-76
2024/01/21 10:01:53;;;;;;;0.15;0.15;;;6.90;93.10;;;;;;5005898;28;20025;-79
2024/01/21 10:04:20;;;;;;;0.17;0.17;;;6.90;93.10;;;;;;5005858;28;20030;-78
2024/01/21 10:06:46;;;;;;;0.20;0.20;;;7.00;93.10;;;;;;5006069;28;20713;-77
2024/01/21 10:09:16;;;;;;;0.10;0.10;;;7.10;93.20;;;;;;5015753;28;20454;-77
2024/01/21 10:11:55;;;;;;;0.20;0.20;;;7.10;93.20;;;;;;5004910;28;20030;-84
2024/01/21 10:14:21;;;;;;;0.10;0.10;;;7.20;93.20;;;;;;5015762;28;20041;-77
2024/01/21 10:16:47;;;;;;;0.15;0.15;;;7.20;93.30;;;;;;5016659;28;21028;-77
2024/01/21 10:19:26;;;;;;;0.17;0.17;;;7.20;93.30;;;;;;5009345;28;20397;-76
2024/01/21 10:22:06;;;;;;;0.10;0.10;;;7.30;93.20;;;;;;5005431;28;20034;-77
2024/01/21 10:24:31;;;;;;;0.10;0.10;;;7.30;93.20;;;;;;5016857;28;20508;-76
2024/01/21 10:26:57;;;;;;;0.10;0.10;;;7.30;93.30;;;;;;5010411;28;20026;-77
2024/01/21 10:29:23;;;;;;;0.20;0.20;;;7.30;93.30;;;;;;5014125;28;20085;-76
2024/01/21 10:31:48;;;;;;;0.10;0.10;;;7.20;93.20;;;;;;5016407;28;20045;-76
2024/01/21 10:34:14;;;;;;;0.10;0.10;;;7.30;93.20;;;;;;5017231;28;20037;-76
2024/01/21 10:36:43;;;;;;;0.10;0.10;;;7.30;93.20;;;;;;4999077;28;20129;-76
2024/01/21 10:39:18;;;;;;;0.10;0.10;;;7.30;93.30;;;;;;5017535;28;20478;-76
2024/01/21 10:41:44;;;;;;;0.10;0.10;;;7.40;93.30;;;;;;5014587;28;20026;-76
2024/01/21 10:44:10;;;;;;;0.10;0.10;;;7.40;93.30;;;;;;5012566;28;20152;-76
2024/01/21 10:46:38;;;;;;;0.10;0.10;;;7.40;93.40;;;;;;5007459;28;20052;-76
2024/01/21 10:49:04;;;;;;;0.10;0.10;;;7.40;93.30;;;;;;5017079;28;20026;-77
2024/01/21 10:51:30;;;;;;;0.13;0.13;;;7.50;93.40;;;;;;5013570;28;20129;-76
2024/01/21 10:53:59;;;;;;;0.10;0.10;;;7.50;93.40;;;;;;5015345;28;20374;-76
2024/01/21 10:56:26;;;;;;;0.10;0.10;;;7.50;93.30;;;;;;5008655;28;20032;-76
2024/01/21 10:58:52;;;;;;;0.10;0.10;;;7.70;93.40;;;;;;5004327;28;20037;-76
2024/01/21 11:01:19;;;;;;;0.10;0.10;;;7.80;93.30;;;;;;5006565;28;20022;-77
2024/01/21 11:03:48;;;;;;;0.10;0.10;;;7.80;93.10;;;;;;5009701;28;20025;-76
2024/01/21 11:06:15;;;;;;;0.10;0.10;;;7.80;93.10;;;;;;5014985;28;20030;-75
2024/01/21 11:08:43;;;;;;;0.10;0.10;;;7.80;93.00;;;;;;5013425;28;20818;-76
2024/01/21 11:11:08;;;;;;;0.10;0.10;;;7.80;93.00;;;;;;5010348;28;20112;-75
2024/01/21 11:13:48;;;;;;;0.10;0.10;;;8.00;93.00;;;;;;5003900;28;20085;-76
2024/01/21 11:16:26;;;;;;;0.10;0.10;;;8.00;92.90;;;;;;5002281;28;20318;-78
2024/01/21 11:19:08;;;;;;;0.10;0.10;;;8.00;92.90;;;;;;5013122;28;20061;-78
2024/01/21 11:21:40;;;;;;;0.20;0.20;;;8.20;93.00;;;;;;5010254;28;20045;-79
2024/01/21 11:27:55;;;;;;;0.20;0.20;;;8.30;92.80;;;;;;4929414;29;20043;-87
2024/01/21 11:30:24;;;;;;;0.10;0.10;;;8.30;93.00;;;;;;4943002;29;20537;-76
2024/01/21 11:33:27;;;;;;;0.20;0.20;;;8.50;93.00;;;;;;5011698;28;20108;-83
2024/01/21 11:35:57;;;;;;;0.20;0.20;;;8.70;92.70;;;;;;5015226;28;20034;-82
2024/01/21 11:38:40;;;;;;;0.10;0.10;;;9.00;92.90;;;;;;5015348;28;20026;-90
2024/01/21 11:41:08;;;;;;;0.20;0.20;;;9.10;92.60;;;;;;5009370;28;20037;-77
2024/01/21 11:43:34;;;;;;;0.20;0.20;;;9.40;92.50;;;;;;5008903;28;20121;-78
2024/01/21 11:46:03;;;;;;;0.13;0.13;;;9.70;92.60;;;;;;5010533;28;20065;-77
2024/01/21 11:48:29;;;;;;;0.10;0.10;;;9.80;92.40;;;;;;5005386;28;20101;-78
2024/01/21 11:50:56;;;;;;;0.20;0.20;;;10.00;92.40;;;;;;5010187;28;20086;-77
2024/01/21 11:53:25;;;;;;;0.20;0.20;;;10.20;92.20;;;;;;5011137;28;20060;-77
2024/01/21 11:55:56;;;;;;;0.20;0.20;;;10.30;92.10;;;;;;5005443;28;20045;-79
2024/01/21 11:58:22;;;;;;;0.10;0.10;;;10.30;91.90;;;;;;5003005;28;20355;-80
2024/01/21 12:00:48;;;;;;;0.10;0.10;;;10.30;92.00;;;;;;5007707;28;20022;-79
2024/01/21 12:03:14;;;;;;;0.20;0.20;;;10.30;91.90;;;;;;5008643;28;20046;-79
2024/01/21 12:05:41;;;;;;;0.10;0.10;;;10.40;91.90;;;;;;5009015;28;20022;-77
2024/01/21 12:08:07;;;;;;;0.20;0.20;;;10.50;92.00;;;;;;5007410;28;20037;-78
2024/01/21 12:10:34;;;;;;;0.13;0.13;;;10.60;92.00;;;;;;5014897;28;20026;-78
2024/01/21 12:12:59;;;;;;;0.10;0.10;;;10.70;92.00;;;;;;5012023;28;20411;-76
2024/01/21 12:15:25;;;;;;;0.10;0.10;;;10.80;91.90;;;;;;5009861;28;20022;-78
2024/01/21 12:17:54;;;;;;;0.10;0.10;;;10.80;92.10;;;;;;5010632;28;20045;-78
2024/01/21 12:20:20;;;;;;;0.10;0.10;;;11.00;91.80;;;;;;5013492;28;20919;-75
2024/01/21 12:22:46;;;;;;;0.17;0.17;;;11.00;91.80;;;;;;5010740;28;20029;-75
2024/01/21 12:25:12;;;;;;;0.20;0.20;;;11.00;91.70;;;;;;5015560;28;20033;-80
2024/01/21 12:28:08;;;;;;;0.10;0.10;;;11.00;91.70;;;;;;5008687;28;20576;-79
2024/01/21 12:30:40;;;;;;;0.10;0.10;;;11.10;91.70;;;;;;5019536;28;20034;-80
2024/01/21 12:33:05;;;;;;;0.20;0.20;;;11.20;91.60;;;;;;5007053;28;20042;-79
2024/01/21 12:35:31;;;;;;;0.10;0.10;;;11.40;91.50;;;;;;5002138;28;20031;-75
2024/01/21 12:37:59;;;;;;;0.13;0.13;;;11.50;91.00;;;;;;5006850;28;20163;-75
2024/01/21 12:40:25;;;;;;;0.13;0.13;;;11.60;91.10;;;;;;5004126;28;20034;-77
2024/01/21 12:42:52;;;;;;;0.10;0.10;;;11.70;90.70;;;;;;5000045;28;20026;-76
2024/01/21 12:45:17;;;;;;;0.10;0.10;;;11.80;90.40;;;;;;4999010;28;20018;-76
2024/01/21 12:47:43;;;;;;;0.10;0.10;;;11.80;90.50;;;;;;4995309;28;20050;-76
2024/01/21 12:50:10;;;;;;;0.10;0.10;;;11.90;90.70;;;;;;5002336;28;20022;-75
2024/01/21 12:52:39;;;;;;;0.10;0.10;;;12.00;90.40;;;;;;4994392;28;20084;-76
2024/01/21 12:55:06;;;;;;;0.10;0.10;;;11.90;90.40;;;;;;5003458;28;20037;-76
2024/01/21 12:57:32;;;;;;;0.20;0.20;;;11.90;90.30;;;;;;5003392;28;20085;-76
2024/01/21 12:59:59;;;;;;;0.10;0.10;;;11.90;90.20;;;;;;4999394;28;20109;-76
2024/01/21 13:02:25;;;;;;;0.10;0.10;;;12.00;90.20;;;;;;4998671;28;20613;-76
2024/01/21 13:04:51;;;;;;;0.10;0.10;;;12.10;89.90;;;;;;5005272;28;20030;-76
2024/01/21 13:07:17;;;;;;;0.10;0.10;;;12.20;89.90;;;;;;5000682;28;20026;-76
2024/01/21 13:09:43;;;;;;;0.10;0.10;;;12.20;89.60;;;;;;4994891;28;20448;-76
2024/01/21 13:12:09;;;;;;;0.10;0.10;;;12.30;89.30;;;;;;5012818;28;20030;-76
2024/01/21 13:14:35;;;;;;;0.10;0.10;;;12.40;88.60;;;;;;5008701;28;20161;-76
2024/01/21 13:17:01;;;;;;;0.10;0.10;;;12.50;88.60;;;;;;5001575;28;20038;-76
2024/01/21 13:19:27;;;;;;;0.10;0.10;;;12.70;88.40;;;;;;5008998;28;20026;-76
2024/01/21 13:21:53;;;;;;;0.10;0.10;;;12.70;88.10;;;;;;5003073;28;20037;-76
2024/01/21 13:24:19;;;;;;;0.10;0.10;;;12.80;87.50;;;;;;5011303;28;20026;-76
2024/01/21 13:26:51;;;;;;;0.10;0.10;;;12.70;87.40;;;;;;5010861;28;20522;-77
2024/01/21 13:32:06;;;;;;;0.10;0.10;;;12.80;87.10;;;;;;5008810;28;20065;-78
2024/01/21 13:34:32;;;;;;;0.10;0.10;;;12.90;86.70;;;;;;5003308;28;20030;-76
2024/01/21 13:36:58;;;;;;;0.10;0.10;;;12.90;86.70;;;;;;5011233;28;20036;-77
2024/01/21 13:39:25;;;;;;;0.10;0.10;;;12.90;86.20;;;;;;5001966;28;20026;-77
2024/01/21 13:41:54;;;;;;;0.10;0.10;;;12.90;86.00;;;;;;5017399;28;20548;-77
2024/01/21 13:44:20;;;;;;;0.10;0.10;;;12.80;85.90;;;;;;5012436;28;20083;-77
2024/01/21 13:46:46;;;;;;;0.10;0.10;;;12.80;86.00;;;;;;5016889;28;20105;-77
2024/01/21 13:49:12;;;;;;;0.10;0.10;;;12.80;86.10;;;;;;5007795;28;20065;-77
2024/01/21 13:51:38;;;;;;;0.10;0.10;;;12.80;85.80;;;;;;5005156;28;20054;-77
2024/01/21 13:54:03;;;;;;;0.10;0.10;;;12.80;85.80;;;;;;5000064;28;20037;-76
2024/01/21 13:56:29;;;;;;;0.10;0.10;;;12.80;85.90;;;;;;5003332;28;20064;-77
2024/01/21 13:58:55;;;;;;;0.10;0.10;;;12.80;85.80;;;;;;5007205;28;20032;-77
2024/01/21 14:01:20;;;;;;;0.10;0.10;;;12.80;85.60;;;;;;5007490;28;20108;-78
2024/01/21 14:03:46;;;;;;;0.10;0.10;;;12.80;85.60;;;;;;5011507;28;20021;-78
2024/01/21 14:06:12;;;;;;;0.10;0.10;;;12.80;85.60;;;;;;5011070;28;20068;-78
2024/01/21 14:08:38;;;;;;;0.10;0.10;;;12.80;85.70;;;;;;5011033;28;20045;-77
2024/01/21 14:11:04;;;;;;;0.10;0.10;;;12.70;85.50;;;;;;5017543;28;20101;-77
2024/01/21 14:13:31;;;;;;;0.10;0.10;;;12.70;85.30;;;;;;5013675;28;20117;-78
2024/01/21 14:15:57;;;;;;;0.10;0.10;;;12.70;85.40;;;;;;5013991;28;20080;-78
2024/01/21 14:18:22;;;;;;;0.10;0.10;;;12.70;85.70;;;;;;5012330;28;20489;-78
2024/01/21 14:20:48;;;;;;;0.10;0.10;;;12.70;85.50;;;;;;5011469;28;20440;-78
2024/01/21 14:23:14;;;;;;;0.10;0.10;;;12.60;85.60;;;;;;5011054;28;20026;-77
2024/01/21 14:25:43;;;;;;;0.10;0.10;;;12.70;85.70;;;;;;5007801;28;20037;-78
2024/01/21 14:28:11;;;;;;;0.10;0.10;;;12.60;85.70;;;;;;5008178;28;20037;-78
2024/01/21 14:30:37;;;;;;;0.10;0.10;;;12.60;85.80;;;;;;5010107;28;20080;-78
2024/01/21 14:33:04;;;;;;;0.10;0.10;;;12.60;85.80;;;;;;5007402;28;20030;-78
2024/01/21 14:35:33;;;;;;;0.10;0.10;;;12.70;85.80;;;;;;5008753;28;20650;-78
2024/01/21 14:37:59;;;;;;;0.10;0.10;;;12.70;85.70;;;;;;5005118;28;20057;-78
2024/01/21 14:40:26;;;;;;;0.10;0.10;;;12.80;85.70;;;;;;4997748;28;20404;-78
2024/01/21 14:42:52;;;;;;;0.10;0.10;;;12.70;85.50;;;;;;5002502;28;20596;-77
2024/01/21 14:45:19;;;;;;;0.10;0.10;;;12.80;85.40;;;;;;4996075;28;20034;-78
2024/01/21 14:47:45;;;;;;;0.10;0.10;;;12.80;85.60;;;;;;4999563;28;20057;-77
2024/01/21 14:50:11;;;;;;;0.10;0.10;;;12.70;85.70;;;;;;4995552;28;20027;-78
2024/01/21 14:52:36;;;;;;;0.10;0.10;;;12.80;85.60;;;;;;5002339;28;20033;-78
2024/01/21 14:55:02;;;;;;;0.10;0.10;;;12.70;85.70;;;;;;5002707;28;20030;-78
2024/01/21 14:57:28;;;;;;;0.10;0.10;;;12.70;85.70;;;;;;5004965;28;20022;-77
2024/01/21 14:59:55;;;;;;;0.10;0.10;;;12.70;86.00;;;;;;5004727;28;20030;-77
2024/01/21 15:02:21;;;;;;;0.10;0.10;;;12.70;85.90;;;;;;5010945;28;20022;-76
2024/01/21 15:04:47;;;;;;;0.10;0.10;;;12.70;85.80;;;;;;5011031;28;20401;-76
2024/01/21 15:07:13;;;;;;;0.10;0.10;;;12.80;85.90;;;;;;5005913;28;20034;-78
2024/01/21 15:09:39;;;;;;;0.10;0.10;;;12.80;85.70;;;;;;5010411;28;20038;-82
2024/01/21 15:12:19;;;;;;;0.10;0.10;;;12.80;85.90;;;;;;4997080;28;20058;-85
2024/01/21 15:14:56;;;;;;;0.10;0.10;;;12.70;85.80;;;;;;5001970;28;20046;-82
2024/01/21 15:17:21;;;;;;;0.10;0.10;;;12.70;85.90;;;;;;5010855;28;20034;-80
2024/01/21 15:19:47;;;;;;;0.10;0.10;;;12.70;85.90;;;;;;5011213;28;20045;-77
2024/01/21 15:22:15;;;;;;;0.10;0.10;;;12.70;86.20;;;;;;4987982;28;20162;-81
2024/01/21 15:24:47;;;;;;;0.10;0.10;;;12.70;86.30;;;;;;5006851;28;20050;-86
2024/01/21 15:27:14;;;;;;;0.10;0.10;;;12.70;86.30;;;;;;4994998;28;20075;-76
2024/01/21 15:29:39;;;;;;;0.10;0.10;;;12.60;86.30;;;;;;4995803;28;20241;-78
2024/01/21 15:32:06;;;;;;;0.10;0.10;;;12.60;86.30;;;;;;4995537;28;20145;-76
2024/01/21 15:34:31;;;;;;;0.10;0.10;;;12.70;86.50;;;;;;5010038;28;21078;-76
2024/01/21 15:36:57;;;;;;;0.10;0.10;;;12.60;86.70;;;;;;4990950;28;20018;-77
2024/01/21 15:39:23;;;;;;;0.10;0.10;;;12.60;87.00;;;;;;5007120;28;20120;-77
2024/01/21 15:41:49;;;;;;;0.10;0.10;;;12.50;87.10;;;;;;4988007;28;20014;-78
2024/01/21 15:44:17;;;;;;;0.10;0.10;;;12.50;87.30;;;;;;4992679;28;20100;-78
2024/01/21 15:46:46;;;;;;;0.00;0.00;;;12.50;87.50;;;;;;4998107;28;20565;-78
2024/01/21 15:49:12;;;;;;;0.10;0.10;;;12.50;87.60;;;;;;5005930;28;20034;-83
2024/01/21 15:51:39;;;;;;;0.10;0.10;;;12.40;87.90;;;;;;4993845;28;20030;-81
2024/01/21 15:54:09;;;;;;;0.10;0.10;;;12.40;88.00;;;;;;5012105;28;20095;-79
2024/01/21 15:56:37;;;;;;;0.10;0.10;;;12.40;88.10;;;;;;5010289;28;20022;-82
2024/01/21 15:59:18;;;;;;;0.10;0.10;;;12.40;88.10;;;;;;4994865;28;20026;-81
2024/01/21 16:01:44;;;;;;;0.10;0.10;;;12.40;88.10;;;;;;5013404;28;20023;-82
2024/01/21 16:04:10;;;;;;;0.10;0.10;;;12.40;88.00;;;;;;5011680;28;20121;-80
2024/01/21 16:06:35;;;;;;;0.10;0.10;;;12.30;88.00;;;;;;5009757;28;20026;-80
2024/01/21 16:09:04;;;;;;;0.10;0.10;;;12.30;87.90;;;;;;5014302;28;20030;-80
2024/01/21 16:11:30;;;;;;;0.10;0.10;;;12.40;87.90;;;;;;5010703;28;20018;-81
2024/01/21 16:13:58;;;;;;;0.10;0.10;;;12.40;87.80;;;;;;5008222;28;20121;-80
2024/01/21 16:16:24;;;;;;;0.10;0.10;;;12.50;87.90;;;;;;4994549;28;20022;-79
2024/01/21 16:18:52;;;;;;;0.10;0.10;;;12.40;87.90;;;;;;5000029;28;20029;-80
2024/01/21 16:21:26;;;;;;;0.05;0.05;;;12.40;87.90;;;;;;5005348;28;20022;-82
2024/01/21 16:23:52;;;;;;;0.10;0.10;;;12.40;87.90;;;;;;4996724;28;20034;-81
2024/01/21 16:26:18;;;;;;;0.10;0.10;;;12.40;88.00;;;;;;4989057;28;20076;-82
2024/01/21 16:28:43;;;;;;;0.10;0.10;;;12.40;88.10;;;;;;5005000;28;20049;-82
2024/01/21 16:31:12;;;;;;;0.10;0.10;;;12.40;88.10;;;;;;5007999;28;20103;-79
2024/01/21 16:33:38;;;;;;;0.10;0.10;;;12.40;88.30;;;;;;4999518;28;20042;-81
2024/01/21 16:36:03;;;;;;;0.10;0.10;;;12.30;88.50;;;;;;5003580;28;20075;-80
2024/01/21 16:38:29;;;;;;;0.10;0.10;;;12.30;88.60;;;;;;4997754;28;20057;-79
2024/01/21 16:40:55;;;;;;;0.10;0.10;;;12.30;88.60;;;;;;4997528;28;20053;-80
2024/01/21 16:43:22;;;;;;;0.10;0.10;;;12.30;88.80;;;;;;4995291;28;20076;-80
2024/01/21 16:45:48;;;;;;;0.10;0.10;;;12.20;88.90;;;;;;4995250;28;20545;-80
2024/01/21 16:48:13;;;;;;;0.10;0.10;;;12.30;88.90;;;;;;5003635;28;20109;-80
2024/01/21 16:50:40;;;;;;;0.10;0.10;;;12.20;89.10;;;;;;5004083;28;20033;-80
2024/01/21 16:53:20;;;;;;;0.10;0.10;;;12.20;89.10;;;;;;5002219;28;20116;-80
2024/01/21 16:55:46;;;;;;;0.10;0.10;;;12.20;89.10;;;;;;5006861;28;20056;-80
2024/01/21 16:58:12;;;;;;;0.10;0.10;;;12.20;89.20;;;;;;4997786;28;20026;-81
2024/01/21 17:00:44;;;;;;;0.10;0.10;;;12.20;89.20;;;;;;4995957;28;20694;-79
2024/01/21 17:03:11;;;;;;;0.10;0.10;;;12.20;89.10;;;;;;5005643;28;20025;-81
2024/01/21 17:05:36;;;;;;;0.10;0.10;;;12.20;89.10;;;;;;5006649;28;20026;-81
2024/01/21 17:08:03;;;;;;;0.10;0.10;;;12.20;89.10;;;;;;4996063;28;20026;-80
2024/01/21 17:10:34;;;;;;;0.10;0.10;;;12.20;89.10;;;;;;5005396;28;20101;-79
2024/01/21 17:13:32;;;;;;;0.10;0.10;;;12.30;89.10;;;;;;5006981;28;20033;-84
2024/01/21 17:16:01;;;;;;;0.10;0.10;;;12.20;89.10;;;;;;5005029;28;20046;-83
2024/01/21 17:18:37;;;;;;;;;;;12.20;89.20;;;;;;5014026;28;20112;-85
2024/01/21 17:21:04;;;;;;;0.10;0.10;;;12.20;89.30;;;;;;5010704;28;19914;-83
2024/01/21 17:23:30;;;;;;;0.10;0.10;;;12.20;89.30;;;;;;5013080;28;20033;-85
2024/01/21 17:26:05;;;;;;;;;;;;;;;;;;;;;
2024/01/21 17:28:31;;;;;;;0.10;0.10;;;12.20;89.50;;;;;;5015783;28;20400;-85
2024/01/21 17:30:57;;;;;;;0.10;0.10;;;12.20;89.60;;;;;;5013742;28;20077;-81
2024/01/21 17:33:25;;;;;;;0.10;0.10;;;12.10;89.70;;;;;;5010276;28;20030;-83
2024/01/21 17:35:51;;;;;;;0.10;0.10;;;12.20;89.70;;;;;;5017347;28;20022;-84
2024/01/21 17:38:16;;;;;;;0.10;0.10;;;12.20;89.70;;;;;;4998687;28;20457;-82
2024/01/21 17:40:45;;;;;;;0.10;0.10;;;12.20;89.70;;;;;;5005173;28;20444;-82
2024/01/21 17:43:16;;;;;;;0.03;0.03;;;12.20;89.60;;;;;;4999312;28;20031;-82
2024/01/21 17:45:41;;;;;;;0.10;0.10;;;12.10;89.50;;;;;;4997553;28;20037;-80
2024/01/21 17:48:07;;;;;;;0.10;0.10;;;12.20;89.50;;;;;;4995969;28;20490;-77
2024/01/21 17:50:33;;;;;;;0.10;0.10;;;12.10;89.50;;;;;;4996283;28;20664;-78
2024/01/21 17:52:59;;;;;;;0.00;0.00;;;12.10;89.50;;;;;;5000581;28;20387;-78
2024/01/21 17:55:25;;;;;;;0.10;0.10;;;12.10;89.40;;;;;;5011950;28;20037;-79
2024/01/21 17:57:50;;;;;;;0.10;0.10;;;12.20;89.40;;;;;;5007589;28;20014;-80
2024/01/21 18:00:17;;;;;;;0.10;0.10;;;12.20;89.40;;;;;;5008952;28;20026;-81
2024/01/21 18:02:42;;;;;;;0.10;0.10;;;12.20;89.40;;;;;;5011502;28;20114;-82
2024/01/21 18:05:09;;;;;;;0.10;0.10;;;12.20;89.40;;;;;;5011809;28;20062;-82
2024/01/21 18:07:34;;;;;;;0.10;0.10;;;12.20;89.30;;;;;;5003883;28;20026;-80
2024/01/21 18:10:00;;;;;;;0.10;0.10;;;12.20;89.10;;;;;;5012401;28;20026;-82
2024/01/21 18:12:26;;;;;;;0.10;0.10;;;12.30;89.10;;;;;;5014334;28;20033;-79
2024/01/21 18:14:52;;;;;;;0.10;0.10;;;12.30;89.10;;;;;;5015630;28;20072;-79
2024/01/21 18:17:18;;;;;;;0.10;0.10;;;12.30;89.00;;;;;;5007542;28;20030;-79
2024/01/21 18:19:51;;;;;;;0.10;0.10;;;12.30;89.10;;;;;;5028316;28;20028;-80
2024/01/21 18:22:30;;;;;;;0.10;0.10;;;12.20;88.90;;;;;;5013031;28;20386;-83
2024/01/21 18:25:09;;;;;;;0.10;0.10;;;12.30;88.90;;;;;;5002115;28;20405;-80
2024/01/21 18:28:10;;;;;;;0.10;0.10;;;12.20;89.00;;;;;;5013073;28;20555;-83
2024/01/21 18:30:36;;;;;;;0.00;0.00;;;12.30;88.90;;;;;;4995624;28;20669;-79